Time;durP1;ratioP1;P1;durP2;ratioP2;P2;SDS_P1;SDS_P2;PMS_P1;PMS_P2;Temp;Humidity;BMP_temperature;BMP_pressure;BME280_temperature;BME280_humidity;BME280_pressure;Samples;Min_cycle;Max_cycle;Signal;HPM_P1;HPM_P2
2023/08/09 00:00:52;;;;;;;;;21.75;21.00;;;;;-143.47;100.00;63865.75;2095098;27;46453;-53
2023/08/09 00:01:52;;;;;;;;;18.25;18.25;;;;;-143.47;100.00;63865.75;2102717;28;46287;-52
2023/08/09 00:02:53;;;;;;;;;17.75;16.50;;;;;-143.47;100.00;63865.75;2096382;28;46520;-53
2023/08/09 00:03:53;;;;;;;;;11.75;11.75;;;;;-143.47;100.00;63865.75;2097706;27;46300;-52
2023/08/09 00:04:53;;;;;;;;;14.75;11.00;;;;;-143.47;100.00;63865.75;2101474;28;46257;-57
2023/08/09 00:05:54;;;;;;;;;7.00;7.00;;;;;-143.47;100.00;63865.75;2093269;27;46305;-55
2023/08/09 00:06:54;;;;;;;;;11.00;11.00;;;;;-143.47;100.00;63865.75;2101748;27;46198;-53
2023/08/09 00:07:54;;;;;;;;;7.75;7.75;;;;;-143.47;100.00;63865.75;2092735;28;46379;-55
2023/08/09 00:08:55;;;;;;;;;8.67;8.67;;;;;-143.47;100.00;63865.75;2096691;28;46345;-54
2023/08/09 00:09:56;;;;;;;;;4.50;4.00;;;;;-143.47;100.00;63865.75;2096601;28;46376;-49
2023/08/09 00:10:56;;;;;;;;;8.00;8.00;;;;;-143.47;100.00;63865.75;2097261;28;46270;-53
2023/08/09 00:11:57;;;;;;;;;9.00;9.00;;;;;-143.47;100.00;63865.75;2096997;28;46775;-51
2023/08/09 00:12:57;;;;;;;;;10.67;8.00;;;;;-143.47;100.00;63865.75;2098778;28;46575;-52
2023/08/09 00:13:57;;;;;;;;;8.00;8.00;;;;;-143.47;100.00;63865.75;2096197;28;46165;-52
2023/08/09 00:14:58;;;;;;;;;5.00;5.00;;;;;-143.47;100.00;63865.75;2099472;27;46297;-54
2023/08/09 00:15:58;;;;;;;;;6.00;5.00;;;;;-143.47;100.00;63865.75;2102131;28;46531;-51
2023/08/09 00:16:58;;;;;;;;;6.33;5.67;;;;;-143.47;100.00;63865.75;2096582;28;46128;-55
2023/08/09 00:17:59;;;;;;;;;7.67;6.00;;;;;-143.47;100.00;63865.75;2099741;28;46414;-55
2023/08/09 00:18:59;;;;;;;;;9.00;8.67;;;;;-143.47;100.00;63865.75;2097939;28;46426;-53
2023/08/09 00:20:00;;;;;;;;;8.33;8.33;;;;;-143.47;100.00;63865.75;2098826;27;46117;-54
2023/08/09 00:21:00;;;;;;;;;6.00;6.00;;;;;-143.47;100.00;63865.75;2100499;27;46291;-54
2023/08/09 00:22:00;;;;;;;;;18.00;15.50;;;;;-143.47;100.00;63865.75;2097797;28;46782;-52
2023/08/09 00:23:01;;;;;;;;;28.50;24.50;;;;;-143.47;100.00;63865.75;2096535;28;46632;-54
2023/08/09 00:24:03;;;;;;;;;29.75;28.00;;;;;-143.47;100.00;63865.75;2100099;28;46704;-52
2023/08/09 00:25:04;;;;;;;;;29.60;29.00;;;;;-143.47;100.00;63865.75;2095247;28;46422;-52
2023/08/09 00:26:04;;;;;;;;;22.20;20.60;;;;;-143.47;100.00;63865.75;2099273;28;46774;-54
2023/08/09 00:27:05;;;;;;;;;20.50;18.75;;;;;-143.47;100.00;63865.75;2101592;28;46532;-51
2023/08/09 00:28:06;;;;;;;;;20.00;17.75;;;;;-143.47;100.00;63865.75;2100256;27;46375;-53
2023/08/09 00:29:06;;;;;;;;;26.50;22.25;;;;;-143.47;100.00;63865.75;2099162;28;46661;-53
2023/08/09 00:30:14;;;;;;;;;21.25;21.25;;;;;-143.47;100.00;63865.75;2100925;28;46637;-55
2023/08/09 00:31:14;;;;;;;;;17.60;17.60;;;;;-143.47;100.00;63865.75;2101367;27;45998;-55
2023/08/09 00:32:14;;;;;;;;;16.50;15.00;;;;;-143.47;100.00;63865.75;2099795;27;46278;-54
2023/08/09 00:33:15;;;;;;;;;10.00;10.00;;;;;-143.47;100.00;63865.75;2096345;28;46303;-52
2023/08/09 00:34:15;;;;;;;;;8.67;8.67;;;;;-143.47;100.00;63865.75;2099023;28;46250;-52
2023/08/09 00:35:15;;;;;;;;;8.00;8.00;;;;;-143.47;100.00;63865.75;2098655;27;46304;-53
2023/08/09 00:36:15;;;;;;;;;10.00;10.00;;;;;-143.47;100.00;63865.75;2097241;28;46629;-52
2023/08/09 00:37:16;;;;;;;;;9.33;9.33;;;;;-143.47;100.00;63865.75;2096011;28;46176;-53
2023/08/09 00:38:17;;;;;;;;;7.67;7.00;;;;;-143.47;100.00;63865.75;2097341;28;46277;-52
2023/08/09 00:39:17;;;;;;;;;8.00;8.00;;;;;-143.47;100.00;63865.75;2096600;28;46354;-52
2023/08/09 00:40:17;;;;;;;;;23.75;21.50;;;;;-143.47;100.00;63865.75;2097295;28;46521;-50
2023/08/09 00:41:18;;;;;;;;;17.50;16.00;;;;;-143.47;100.00;63865.75;2095742;28;46420;-53
2023/08/09 00:42:19;;;;;;;;;23.60;21.60;;;;;-143.47;100.00;63865.75;2097183;28;46300;-53
2023/08/09 00:43:19;;;;;;;;;15.75;15.75;;;;;-143.47;100.00;63865.75;2097608;28;46039;-52
2023/08/09 00:44:19;;;;;;;;;11.75;11.75;;;;;-143.47;100.00;63865.75;2098888;27;46306;-53
2023/08/09 00:45:20;;;;;;;;;12.00;10.33;;;;;-143.47;100.00;63865.75;2097489;28;45981;-53
2023/08/09 00:46:22;;;;;;;;;8.00;8.00;;;;;-143.47;100.00;63865.75;2096822;28;46505;-51
2023/08/09 00:47:22;;;;;;;;;9.00;7.00;;;;;-143.47;100.00;63865.75;2097422;28;47211;-50
2023/08/09 00:48:23;;;;;;;;;4.67;4.33;;;;;-143.47;100.00;63865.75;2096998;28;46617;-51
2023/08/09 00:49:25;;;;;;;;;6.00;5.00;;;;;-143.47;100.00;63865.75;2096561;28;46559;-53
2023/08/09 00:50:26;;;;;;;;;4.50;4.50;;;;;-143.47;100.00;63865.75;2097591;28;46646;-49
2023/08/09 00:51:27;;;;;;;;;3.00;3.00;;;;;-143.47;100.00;63865.75;2096391;28;46271;-50
2023/08/09 00:52:27;;;;;;;;;4.67;4.00;;;;;-143.47;100.00;63865.75;2097475;28;46460;-51
2023/08/09 00:53:27;;;;;;;;;4.33;4.33;;;;;-143.47;100.00;63865.75;2097282;28;46599;-54
2023/08/09 00:54:28;;;;;;;;;4.00;4.00;;;;;-143.47;100.00;63865.75;2096509;28;46376;-54
2023/08/09 00:55:28;;;;;;;;;4.67;4.00;;;;;-143.47;100.00;63865.75;2096882;28;46813;-53
2023/08/09 00:56:29;;;;;;;;;2.00;2.00;;;;;-143.47;100.00;63865.75;2093447;28;46348;-54
2023/08/09 00:57:30;;;;;;;;;3.00;2.00;;;;;-143.47;100.00;63865.75;2097500;28;46143;-53
2023/08/09 00:58:30;;;;;;;;;3.25;2.50;;;;;-143.47;100.00;63865.75;2096617;28;46603;-51
2023/08/09 00:59:31;;;;;;;;;3.67;2.67;;;;;-143.47;100.00;63865.75;2096044;28;46183;-52
2023/08/09 01:00:31;;;;;;;;;2.33;2.00;;;;;-143.47;100.00;63865.75;2096024;28;46647;-54
2023/08/09 01:01:31;;;;;;;;;4.00;4.00;;;;;-143.47;100.00;63865.75;2096797;28;46535;-53
2023/08/09 01:02:32;;;;;;;;;2.67;2.67;;;;;-143.47;100.00;63865.75;2096619;28;46910;-54
2023/08/09 01:03:32;;;;;;;;;2.67;2.33;;;;;-143.47;100.00;63865.75;2097293;28;46247;-53
2023/08/09 01:04:33;;;;;;;;;3.00;3.00;;;;;-143.47;100.00;63865.75;2096997;28;46320;-51
2023/08/09 01:05:44;;;;;;;;;1.00;1.00;;;;;-143.47;100.00;63865.75;2096792;28;46348;-53
2023/08/09 01:07:19;;;;;;;;;2.25;2.25;;;;;-143.47;100.00;63865.75;2097200;28;46729;-54
2023/08/09 01:08:29;;;;;;;;;2.00;2.00;;;;;-143.47;100.00;63865.75;2093780;28;46692;-53
2023/08/09 01:09:36;;;;;;;;;2.25;2.00;;;;;-143.47;100.00;63865.75;2096698;28;46141;-55
2023/08/09 01:10:49;;;;;;;;;2.00;2.00;;;;;-143.47;100.00;63865.75;2096047;28;46402;-52
2023/08/09 01:11:55;;;;;;;;;3.50;2.50;;;;;-143.47;100.00;63865.75;2098061;28;46774;-53
2023/08/09 01:13:02;;;;;;;;;2.50;2.50;;;;;-143.47;100.00;63865.75;2100941;28;46759;-54
2023/08/09 01:14:06;;;;;;;;;0.25;0.25;;;;;-143.47;100.00;63865.75;2097868;28;46146;-53
2023/08/09 01:15:08;;;;;;;;;2.00;2.00;;;;;-143.47;100.00;63865.75;2102329;28;46965;-54
2023/08/09 01:16:10;;;;;;;;;2.50;1.75;;;;;-143.47;100.00;63865.75;2100835;28;46971;-53
2023/08/09 01:17:13;;;;;;;;;2.25;2.25;;;;;-143.47;100.00;63865.75;2097857;28;46340;-53
2023/08/09 01:18:14;;;;;;;;;1.00;1.00;;;;;-143.47;100.00;63865.75;2098891;28;46933;-52
2023/08/09 01:19:36;;;;;;;;;2.00;2.00;;;;;-143.47;100.00;63865.75;2098223;28;46274;-55
2023/08/09 01:20:37;;;;;;;;;2.00;2.00;;;;;-143.47;100.00;63865.75;2096350;28;46963;-55
2023/08/09 01:21:43;;;;;;;;;3.00;2.00;;;;;-143.47;100.00;63865.75;2103245;28;47132;-54
2023/08/09 01:22:56;;;;;;;;;1.00;1.00;;;;;-143.47;100.00;63865.75;2096204;28;46514;-53
2023/08/09 01:23:56;;;;;;;;;1.25;1.25;;;;;-143.47;100.00;63865.75;2098329;27;46359;-53
2023/08/09 01:25:03;;;;;;;;;1.00;1.00;;;;;-143.47;100.00;63865.75;2098939;27;46753;-52
2023/08/09 01:26:04;;;;;;;;;1.75;1.75;;;;;-143.47;100.00;63865.75;2105682;27;46915;-51
2023/08/09 01:27:05;;;;;;;;;2.50;2.50;;;;;-143.47;100.00;63865.75;2101891;27;46723;-55
2023/08/09 01:28:05;;;;;;;;;1.00;1.00;;;;;-143.47;100.00;63865.75;2096482;28;46437;-50
2023/08/09 01:29:06;;;;;;;;;4.00;2.33;;;;;-143.47;100.00;63865.75;2090467;28;46517;-54
2023/08/09 01:30:10;;;;;;;;;1.00;1.00;;;;;-143.47;100.00;63865.75;2101769;28;46397;-54
2023/08/09 01:31:11;;;;;;;;;2.00;2.00;;;;;-143.47;100.00;63865.75;2104654;27;46272;-55
2023/08/09 01:32:11;;;;;;;;;1.00;1.00;;;;;-143.47;100.00;63865.75;2098643;27;46786;-54
2023/08/09 01:33:12;;;;;;;;;0.33;0.33;;;;;-143.47;100.00;63865.75;2100446;28;46648;-54
2023/08/09 01:34:12;;;;;;;;;2.00;2.00;;;;;-143.47;100.00;63865.75;2101042;28;46407;-53
2023/08/09 01:35:13;;;;;;;;;2.00;2.00;;;;;-143.47;100.00;63865.75;2097191;28;46812;-53
2023/08/09 01:36:23;;;;;;;;;1.75;1.75;;;;;-143.47;100.00;63865.75;2099219;28;46190;-53
2023/08/09 01:37:40;;;;;;;;;2.00;2.00;;;;;-143.47;100.00;63865.75;2097863;28;46576;-54
2023/08/09 01:38:48;;;;;;;;;1.75;1.00;;;;;-143.47;100.00;63865.75;2098172;28;46770;-53
2023/08/09 01:39:51;;;;;;;;;2.00;2.00;;;;;-143.47;100.00;63865.75;2100555;27;46959;-52
2023/08/09 01:40:53;;;;;;;;;1.75;1.75;;;;;-143.47;100.00;63865.75;2103360;27;47035;-54
2023/08/09 01:41:55;;;;;;;;;1.00;1.00;;;;;-143.47;100.00;63865.75;2097556;28;46735;-51
2023/08/09 01:42:57;;;;;;;;;1.00;0.75;;;;;-143.47;100.00;63865.75;2095834;28;46834;-50
2023/08/09 01:43:57;;;;;;;;;0.75;0.75;;;;;-143.47;100.00;63865.75;2095330;28;46302;-54
2023/08/09 01:44:58;;;;;;;;;1.00;1.00;;;;;-143.47;100.00;63865.75;2097481;28;45636;-54
2023/08/09 01:46:00;;;;;;;;;2.00;2.00;;;;;-143.47;100.00;63865.75;2096980;28;46507;-53
2023/08/09 01:47:01;;;;;;;;;1.00;1.00;;;;;-143.47;100.00;63865.75;2100853;28;46707;-51
2023/08/09 01:48:01;;;;;;;;;2.00;2.00;;;;;-143.47;100.00;63865.75;2098278;27;46224;-53
2023/08/09 01:49:13;;;;;;;;;2.00;2.00;;;;;-143.47;100.00;63865.75;2101270;27;46298;-54
2023/08/09 01:50:23;;;;;;;;;1.50;1.50;;;;;-143.47;100.00;63865.75;2094120;28;46515;-51
2023/08/09 01:51:23;;;;;;;;;1.25;1.25;;;;;-143.47;100.00;63865.75;2097879;28;46731;-54
2023/08/09 01:52:23;;;;;;;;;1.67;1.67;;;;;-143.47;100.00;63865.75;2099468;28;46193;-55
2023/08/09 01:53:24;;;;;;;;;1.00;1.00;;;;;-143.47;100.00;63865.75;2103729;27;46457;-54
2023/08/09 01:54:24;;;;;;;;;0.67;0.67;;;;;-143.47;100.00;63865.75;2098106;28;46495;-52
2023/08/09 01:55:26;;;;;;;;;2.00;2.00;;;;;-143.47;100.00;63865.75;2101306;28;46535;-54
2023/08/09 01:56:26;;;;;;;;;1.00;1.00;;;;;-143.47;100.00;63865.75;2096701;28;46736;-52
2023/08/09 01:57:26;;;;;;;;;3.33;2.00;;;;;-143.47;100.00;63865.75;2098242;27;46685;-54
2023/08/09 01:58:27;;;;;;;;;1.00;1.00;;;;;-143.47;100.00;63865.75;2101528;28;46850;-54
2023/08/09 01:59:27;;;;;;;;;1.67;1.67;;;;;-143.47;100.00;63865.75;2094808;27;46677;-52
2023/08/09 02:00:27;;;;;;;;;1.00;1.00;;;;;-143.47;100.00;63865.75;2098912;28;46934;-52
2023/08/09 02:01:28;;;;;;;;;0.00;0.00;;;;;-143.47;100.00;63865.75;2097401;28;46481;-55
2023/08/09 02:02:28;;;;;;;;;1.67;1.33;;;;;-143.47;100.00;63865.75;2099775;28;46617;-54
2023/08/09 02:03:28;;;;;;;;;2.00;2.00;;;;;-143.47;100.00;63865.75;2103981;27;46586;-54
2023/08/09 02:04:29;;;;;;;;;0.67;0.67;;;;;-143.47;100.00;63865.75;2094647;28;46784;-55
2023/08/09 02:05:29;;;;;;;;;2.00;2.00;;;;;-143.47;100.00;63865.75;2101880;28;46413;-52
2023/08/09 02:06:34;;;;;;;;;3.00;2.00;;;;;-143.47;100.00;63865.75;2100385;28;46700;-53
2023/08/09 02:07:34;;;;;;;;;0.75;0.75;;;;;-143.47;100.00;63865.75;2093690;28;46944;-54
2023/08/09 02:08:34;;;;;;;;;1.00;1.00;;;;;-143.47;100.00;63865.75;2100764;28;46707;-54
2023/08/09 02:09:35;;;;;;;;;1.00;1.00;;;;;-143.47;100.00;63865.75;2098765;28;47087;-53
2023/08/09 02:10:35;;;;;;;;;1.00;1.00;;;;;-143.47;100.00;63865.75;2099440;27;45987;-53
2023/08/09 02:11:35;;;;;;;;;1.33;1.33;;;;;-143.47;100.00;63865.75;2087951;28;46469;-53
2023/08/09 02:12:40;;;;;;;;;0.00;0.00;;;;;-143.47;100.00;63865.75;2088661;28;45459;-55
2023/08/09 02:13:40;;;;;;;;;1.00;0.00;;;;;-143.47;100.00;63865.75;2099511;28;46545;-55
2023/08/09 02:14:41;;;;;;;;;1.33;1.00;;;;;-143.47;100.00;63865.75;2100118;28;46259;-54
2023/08/09 02:15:41;;;;;;;;;1.00;1.00;;;;;-143.47;100.00;63865.75;2098331;28;46321;-54
2023/08/09 02:16:41;;;;;;;;;2.33;2.00;;;;;-143.47;100.00;63865.75;2099911;28;46032;-51
2023/08/09 02:17:46;;;;;;;;;1.00;1.00;;;;;-143.47;100.00;63865.75;2097838;28;47130;-52
2023/08/09 02:18:46;;;;;;;;;1.25;1.00;;;;;-143.47;100.00;63865.75;2098649;27;46925;-52
2023/08/09 02:19:46;;;;;;;;;0.00;0.00;;;;;-143.47;100.00;63865.75;2100286;28;46546;-54
2023/08/09 02:20:47;;;;;;;;;0.00;0.00;;;;;-143.47;100.00;63865.75;2099753;27;46120;-51
2023/08/09 02:21:47;;;;;;;;;2.00;2.00;;;;;-143.47;100.00;63865.75;2101070;28;45866;-53
2023/08/09 02:22:48;;;;;;;;;3.00;2.33;;;;;-143.47;100.00;63865.75;2103593;27;46347;-51
2023/08/09 02:23:48;;;;;;;;;2.00;1.00;;;;;-143.47;100.00;63865.75;2097419;28;46193;-54
2023/08/09 02:24:49;;;;;;;;;0.33;0.33;;;;;-143.47;100.00;63865.75;2099662;28;46678;-53
2023/08/09 02:25:49;;;;;;;;;1.00;1.00;;;;;-143.47;100.00;63865.75;2098175;28;46132;-53
2023/08/09 02:26:49;;;;;;;;;1.67;1.67;;;;;-143.47;100.00;63865.75;2098674;27;46633;-53
2023/08/09 02:27:50;;;;;;;;;1.00;1.00;;;;;-143.47;100.00;63865.75;2101720;28;46498;-52
2023/08/09 02:28:50;;;;;;;;;0.00;0.00;;;;;-143.47;100.00;63865.75;2099137;27;46340;-50
2023/08/09 02:29:50;;;;;;;;;1.00;1.00;;;;;-143.47;100.00;63865.75;2101171;28;46780;-53
2023/08/09 02:30:53;;;;;;;;;2.33;1.00;;;;;-143.47;100.00;63865.75;2097672;28;46604;-50
2023/08/09 02:31:53;;;;;;;;;1.00;1.00;;;;;-143.47;100.00;63865.75;2101400;28;45693;-53
2023/08/09 02:32:53;;;;;;;;;2.00;2.00;;;;;-143.47;100.00;63865.75;2097397;28;46479;-52
2023/08/09 02:33:55;;;;;;;;;3.00;3.00;;;;;-143.47;100.00;63865.75;2097237;28;46631;-52
2023/08/09 02:34:55;;;;;;;;;0.00;0.00;;;;;-143.47;100.00;63865.75;2092797;28;46353;-53
2023/08/09 02:35:58;;;;;;;;;1.00;1.00;;;;;-143.47;100.00;63865.75;2102989;28;46421;-53
2023/08/09 02:36:59;;;;;;;;;1.00;1.00;;;;;-143.47;100.00;63865.75;2099478;27;46151;-51
2023/08/09 02:37:59;;;;;;;;;2.50;1.75;;;;;-143.47;100.00;63865.75;2104300;27;46632;-53
2023/08/09 02:39:00;;;;;;;;;3.00;2.00;;;;;-143.47;100.00;63865.75;2101653;28;46495;-53
2023/08/09 02:40:01;;;;;;;;;1.67;1.67;;;;;-143.47;100.00;63865.75;2098290;27;46610;-49
2023/08/09 02:41:03;;;;;;;;;1.00;1.00;;;;;-143.47;100.00;63865.75;2103284;28;47103;-50
2023/08/09 02:42:04;;;;;;;;;2.00;2.00;;;;;-143.47;100.00;63865.75;2098597;28;46923;-50
2023/08/09 02:43:04;;;;;;;;;2.33;1.67;;;;;-143.47;100.00;63865.75;2101195;27;46607;-53
2023/08/09 02:44:05;;;;;;;;;1.00;1.00;;;;;-143.47;100.00;63865.75;2101326;28;46471;-51
2023/08/09 02:45:06;;;;;;;;;2.00;2.00;;;;;-143.47;100.00;63865.75;2097863;27;46125;-53
2023/08/09 02:46:07;;;;;;;;;0.00;0.00;;;;;-143.47;100.00;63865.75;2102580;28;46645;-53
2023/08/09 02:47:08;;;;;;;;;1.00;1.00;;;;;-143.47;100.00;63865.75;2097369;28;46466;-52
2023/08/09 02:48:08;;;;;;;;;2.50;2.50;;;;;-143.47;100.00;63865.75;2097089;28;46353;-50
2023/08/09 02:49:08;;;;;;;;;0.00;0.00;;;;;-143.47;100.00;63865.75;2098788;28;46726;-53
2023/08/09 02:50:09;;;;;;;;;0.33;0.33;;;;;-143.47;100.00;63865.75;2097667;27;46601;-52
2023/08/09 02:51:10;;;;;;;;;2.00;1.00;;;;;-143.47;100.00;63865.75;2101526;28;46423;-52
2023/08/09 02:52:11;;;;;;;;;2.00;2.00;;;;;-143.47;100.00;63865.75;2099511;28;46491;-53
2023/08/09 02:53:12;;;;;;;;;2.00;0.33;;;;;-143.47;100.00;63865.75;2098533;27;46124;-52
2023/08/09 02:54:13;;;;;;;;;2.00;2.00;;;;;-143.47;100.00;63865.75;2096870;28;46558;-52
2023/08/09 02:55:13;;;;;;;;;0.00;0.00;;;;;-143.47;100.00;63865.75;2096159;28;46575;-52
2023/08/09 02:56:13;;;;;;;;;1.00;1.00;;;;;-143.47;100.00;63865.75;2097912;28;46153;-51
2023/08/09 02:57:14;;;;;;;;;2.00;2.00;;;;;-143.47;100.00;63865.75;2100198;28;46163;-51
2023/08/09 02:58:14;;;;;;;;;1.00;1.00;;;;;-143.47;100.00;63865.75;2097204;28;46777;-53
2023/08/09 02:59:15;;;;;;;;;0.67;0.67;;;;;-143.47;100.00;63865.75;2097659;28;46167;-52
2023/08/09 03:00:16;;;;;;;;;1.67;1.67;;;;;-143.47;100.00;63865.75;2099225;28;46629;-51
2023/08/09 03:01:16;;;;;;;;;2.00;1.00;;;;;-143.47;100.00;63865.75;2098758;27;46631;-53
2023/08/09 03:02:17;;;;;;;;;1.00;0.67;;;;;-143.47;100.00;63865.75;2100527;28;46329;-53
2023/08/09 03:03:17;;;;;;;;;1.00;1.00;;;;;-143.47;100.00;63865.75;2097598;28;46854;-53
2023/08/09 03:04:17;;;;;;;;;1.67;1.00;;;;;-143.47;100.00;63865.75;2097375;27;46577;-53
2023/08/09 03:05:18;;;;;;;;;0.50;0.50;;;;;-143.47;100.00;63865.75;2100904;28;46576;-52
2023/08/09 03:06:20;;;;;;;;;1.00;1.00;;;;;-143.47;100.00;63865.75;2097067;28;46536;-56
2023/08/09 03:07:21;;;;;;;;;1.00;1.00;;;;;-143.47;100.00;63865.75;2096945;28;46997;-53
2023/08/09 03:08:21;;;;;;;;;1.67;0.67;;;;;-143.47;100.00;63865.75;2096623;28;46222;-55
2023/08/09 03:09:22;;;;;;;;;1.00;0.33;;;;;-143.47;100.00;63865.75;2096356;28;46715;-52
2023/08/09 03:10:23;;;;;;;;;2.67;2.67;;;;;-143.47;100.00;63865.75;2100445;28;46202;-52
2023/08/09 03:11:25;;;;;;;;;3.00;2.75;;;;;-143.47;100.00;63865.75;2096139;28;46295;-52
2023/08/09 03:12:25;;;;;;;;;2.00;2.00;;;;;-143.47;100.00;63865.75;2098142;27;46807;-53
2023/08/09 03:13:25;;;;;;;;;2.00;2.00;;;;;-143.47;100.00;63865.75;2095309;28;46348;-53
2023/08/09 03:14:25;;;;;;;;;2.00;2.00;;;;;-143.47;100.00;63865.75;2096357;28;46091;-55
2023/08/09 03:15:26;;;;;;;;;0.00;0.00;;;;;-143.47;100.00;63865.75;2097660;28;46573;-53
2023/08/09 03:16:26;;;;;;;;;2.33;2.33;;;;;-143.47;100.00;63865.75;2099644;28;46194;-55
2023/08/09 03:17:27;;;;;;;;;1.00;1.00;;;;;-143.47;100.00;63865.75;2097687;27;46237;-52
2023/08/09 03:18:27;;;;;;;;;0.67;0.67;;;;;-143.47;100.00;63865.75;2100067;28;46539;-54
2023/08/09 03:19:27;;;;;;;;;0.33;0.33;;;;;-143.47;100.00;63865.75;2098275;28;46150;-54
2023/08/09 03:20:29;;;;;;;;;0.00;0.00;;;;;-143.47;100.00;63865.75;2099876;27;46754;-54
2023/08/09 03:21:29;;;;;;;;;1.25;1.25;;;;;-143.47;100.00;63865.75;2098786;28;46784;-54
2023/08/09 03:22:29;;;;;;;;;2.00;1.00;;;;;-143.47;100.00;63865.75;2095797;28;47896;-54
2023/08/09 03:23:30;;;;;;;;;1.00;0.33;;;;;-143.47;100.00;63865.75;2099883;28;46508;-54
2023/08/09 03:24:30;;;;;;;;;3.67;3.67;;;;;-143.47;100.00;63865.75;2098998;28;46516;-53
2023/08/09 03:25:31;;;;;;;;;2.00;2.00;;;;;-143.47;100.00;63865.75;2097535;27;46794;-52
2023/08/09 03:26:31;;;;;;;;;0.00;0.00;;;;;-143.47;100.00;63865.75;2101419;28;46534;-52
2023/08/09 03:27:31;;;;;;;;;1.00;1.00;;;;;-143.47;100.00;63865.75;2102434;27;46236;-53
2023/08/09 03:28:32;;;;;;;;;0.33;0.33;;;;;-143.47;100.00;63865.75;2098319;27;46102;-53
2023/08/09 03:29:33;;;;;;;;;1.00;1.00;;;;;-143.47;100.00;63865.75;2099283;28;46687;-52
2023/08/09 03:30:33;;;;;;;;;0.67;0.33;;;;;-143.47;100.00;63865.75;2092151;27;46484;-54
2023/08/09 03:31:34;;;;;;;;;1.00;1.00;;;;;-143.47;100.00;63865.75;2098532;28;46242;-52
2023/08/09 03:32:35;;;;;;;;;0.67;0.67;;;;;-143.47;100.00;63865.75;2092795;28;46181;-53
2023/08/09 03:33:36;;;;;;;;;0.75;0.75;;;;;-143.47;100.00;63865.75;2091933;28;46367;-53
2023/08/09 03:34:36;;;;;;;;;1.00;1.00;;;;;-143.47;100.00;63865.75;2104117;28;46862;-52
2023/08/09 03:35:36;;;;;;;;;0.33;0.33;;;;;-143.47;100.00;63865.75;2095462;28;45915;-52
2023/08/09 03:36:37;;;;;;;;;0.67;0.67;;;;;-143.47;100.00;63865.75;2100612;28;46220;-50
2023/08/09 03:37:37;;;;;;;;;3.00;1.00;;;;;-143.47;100.00;63865.75;2104750;28;46881;-52
2023/08/09 03:38:38;;;;;;;;;3.00;3.00;;;;;-143.47;100.00;63865.75;2108135;27;46395;-50
2023/08/09 03:39:38;;;;;;;;;1.00;0.67;;;;;-143.47;100.00;63865.75;2096300;28;46656;-49
2023/08/09 03:40:39;;;;;;;;;1.00;1.00;;;;;-143.47;100.00;63865.75;2098106;28;46228;-54
2023/08/09 03:41:41;;;;;;;;;0.75;0.00;;;;;-143.47;100.00;63865.75;2096532;27;46762;-53
2023/08/09 03:42:42;;;;;;;;;1.25;1.25;;;;;-143.47;100.00;63865.75;2096860;28;46819;-52
2023/08/09 03:43:42;;;;;;;;;1.50;1.25;;;;;-143.47;100.00;63865.75;2095984;28;46209;-54
2023/08/09 03:44:42;;;;;;;;;0.67;0.67;;;;;-143.47;100.00;63865.75;2099534;28;46296;-52
2023/08/09 03:45:43;;;;;;;;;0.67;0.67;;;;;-143.47;100.00;63865.75;2095950;28;46813;-54
2023/08/09 03:46:43;;;;;;;;;0.00;0.00;;;;;-143.47;100.00;63865.75;2096733;28;46591;-50
2023/08/09 03:47:43;;;;;;;;;0.33;0.33;;;;;-143.47;100.00;63865.75;2096365;28;46208;-53
2023/08/09 03:48:44;;;;;;;;;0.33;0.33;;;;;-143.47;100.00;63865.75;2092447;28;45893;-54
2023/08/09 03:49:44;;;;;;;;;0.33;0.33;;;;;-143.47;100.00;63865.75;2097646;28;46607;-53
2023/08/09 03:50:45;;;;;;;;;0.00;0.00;;;;;-143.47;100.00;63865.75;2099278;28;46572;-53
2023/08/09 03:51:45;;;;;;;;;1.00;1.00;;;;;-143.47;100.00;63865.75;2093709;28;46638;-53
2023/08/09 03:52:45;;;;;;;;;0.00;0.00;;;;;-143.47;100.00;63865.75;2102348;27;46471;-53
2023/08/09 03:53:46;;;;;;;;;1.00;1.00;;;;;-143.47;100.00;63865.75;2102261;28;46112;-53
2023/08/09 03:54:47;;;;;;;;;1.00;1.00;;;;;-143.47;100.00;63865.75;2094491;27;46259;-52
2023/08/09 03:55:47;;;;;;;;;0.50;0.50;;;;;-143.47;100.00;63865.75;2103559;27;46681;-50
2023/08/09 03:56:48;;;;;;;;;2.00;1.00;;;;;-143.47;100.00;63865.75;2092128;28;46292;-52
2023/08/09 03:57:48;;;;;;;;;0.33;0.33;;;;;-143.47;100.00;63865.75;2109356;27;46217;-51
2023/08/09 03:58:49;;;;;;;;;0.00;0.00;;;;;-143.47;100.00;63865.75;2111810;27;46305;-51
2023/08/09 03:59:49;;;;;;;;;0.00;0.00;;;;;-143.47;100.00;63865.75;2097922;28;46844;-53
2023/08/09 04:00:51;;;;;;;;;0.00;0.00;;;;;-143.47;100.00;63865.75;2101634;27;46644;-54
2023/08/09 04:01:51;;;;;;;;;1.00;0.00;;;;;-143.47;100.00;63865.75;2083221;28;46701;-53
2023/08/09 04:02:52;;;;;;;;;0.00;0.00;;;;;-143.47;100.00;63865.75;2082382;28;46616;-53
2023/08/09 04:03:52;;;;;;;;;0.00;0.00;;;;;-143.47;100.00;63865.75;2101862;28;46322;-53
2023/08/09 04:04:52;;;;;;;;;0.00;0.00;;;;;-143.47;100.00;63865.75;2098985;28;46202;-52
2023/08/09 04:05:53;;;;;;;;;0.00;0.00;;;;;-143.47;100.00;63865.75;2100303;27;46299;-54
2023/08/09 04:06:53;;;;;;;;;0.00;0.00;;;;;-143.47;100.00;63865.75;2084894;28;46518;-54
2023/08/09 04:07:53;;;;;;;;;0.67;0.00;;;;;-143.47;100.00;63865.75;2078820;28;46111;-53
2023/08/09 04:08:54;;;;;;;;;1.00;1.00;;;;;-143.47;100.00;63865.75;2096456;28;46355;-54
2023/08/09 04:09:54;;;;;;;;;1.00;1.00;;;;;-143.47;100.00;63865.75;2096653;28;46216;-50
2023/08/09 04:10:54;;;;;;;;;1.00;1.00;;;;;-143.47;100.00;63865.75;2094436;28;46768;-54
2023/08/09 04:11:55;;;;;;;;;0.67;0.67;;;;;-143.47;100.00;63865.75;2099991;28;46796;-52
2023/08/09 04:12:55;;;;;;;;;0.33;0.33;;;;;-143.47;100.00;63865.75;2097037;28;46874;-54
2023/08/09 04:13:55;;;;;;;;;0.00;0.00;;;;;-143.47;100.00;63865.75;2104037;27;45754;-54
2023/08/09 04:14:55;;;;;;;;;0.00;0.00;;;;;-143.47;100.00;63865.75;2101994;27;45521;-53
2023/08/09 04:15:56;;;;;;;;;1.00;0.00;;;;;-143.47;100.00;63865.75;2099028;27;46261;-52
2023/08/09 04:16:57;;;;;;;;;0.67;0.67;;;;;-143.47;100.00;63865.75;2097329;28;46430;-53
2023/08/09 04:17:58;;;;;;;;;0.00;0.00;;;;;-143.47;100.00;63865.75;2096921;28;46425;-52
2023/08/09 04:18:59;;;;;;;;;0.25;0.25;;;;;-143.47;100.00;63865.75;2096500;28;47055;-54
2023/08/09 04:20:00;;;;;;;;;0.33;0.33;;;;;-143.47;100.00;63865.75;2094703;28;46273;-53
2023/08/09 04:21:00;;;;;;;;;0.25;0.25;;;;;-143.47;100.00;63865.75;2091228;28;46481;-52
2023/08/09 04:22:00;;;;;;;;;1.00;1.00;;;;;-143.47;100.00;63865.75;2095968;28;46616;-53
2023/08/09 04:23:01;;;;;;;;;0.00;0.00;;;;;-143.47;100.00;63865.75;2095539;28;46588;-52
2023/08/09 04:24:01;;;;;;;;;0.00;0.00;;;;;-143.47;100.00;63865.75;2094934;28;46469;-54
2023/08/09 04:25:03;;;;;;;;;2.00;1.00;;;;;-143.47;100.00;63865.75;2096317;28;46389;-54
2023/08/09 04:26:04;;;;;;;;;1.00;1.00;;;;;-143.47;100.00;63865.75;2096610;28;46078;-54
2023/08/09 04:27:04;;;;;;;;;0.00;0.00;;;;;-143.47;100.00;63865.75;2096792;28;46154;-53
2023/08/09 04:28:05;;;;;;;;;0.00;0.00;;;;;-143.47;100.00;63865.75;2096295;28;46246;-54
2023/08/09 04:29:05;;;;;;;;;0.00;0.00;;;;;-143.47;100.00;63865.75;2091250;28;46386;-53
2023/08/09 04:30:09;;;;;;;;;0.00;0.00;;;;;-143.47;100.00;63865.75;2096770;28;46378;-54
2023/08/09 04:31:09;;;;;;;;;0.50;0.50;;;;;-143.47;100.00;63865.75;2095994;28;47029;-53
2023/08/09 04:32:10;;;;;;;;;0.00;0.00;;;;;-143.47;100.00;63865.75;2096906;28;46603;-50
2023/08/09 04:33:10;;;;;;;;;0.33;0.00;;;;;-143.47;100.00;63865.75;2096392;28;46905;-50
2023/08/09 04:34:11;;;;;;;;;0.00;0.00;;;;;-143.47;100.00;63865.75;2098930;28;46653;-54
2023/08/09 04:35:11;;;;;;;;;0.00;0.00;;;;;-143.47;100.00;63865.75;2096829;27;46833;-51
2023/08/09 04:36:11;;;;;;;;;0.00;0.00;;;;;-143.47;100.00;63865.75;2092220;28;46604;-53
2023/08/09 04:37:12;;;;;;;;;0.00;0.00;;;;;-143.47;100.00;63865.75;2094246;28;46523;-52
2023/08/09 04:38:13;;;;;;;;;0.00;0.00;;;;;-143.47;100.00;63865.75;2094937;28;46740;-53